createdAt,value
2017-06-12T00:00:29.554Z,51.93
2017-06-12T00:01:10.011Z,51.93
2017-06-12T00:01:50.470Z,51.64
2017-06-12T00:02:30.926Z,51.64
2017-06-12T00:03:11.382Z,51.84
2017-06-12T00:03:51.843Z,52
2017-06-12T00:04:32.303Z,52.12
2017-06-12T00:05:12.759Z,52.1
2017-06-12T00:05:53.214Z,51.81
2017-06-12T00:06:33.671Z,51.81
2017-06-12T00:07:14.127Z,51.93
2017-06-12T00:07:54.569Z,51.93
2017-06-12T00:08:35.020Z,51.93
2017-06-12T00:09:15.477Z,51.93
2017-06-12T00:09:55.942Z,51.81
2017-06-12T00:10:36.399Z,51.9
2017-06-12T00:11:16.856Z,51.81
2017-06-12T00:11:57.310Z,52.12
2017-06-12T00:12:37.762Z,52.1
2017-06-12T00:13:18.217Z,51.84
2017-06-12T00:13:58.661Z,51.84
2017-06-12T00:14:39.118Z,51.64
2017-06-12T00:15:19.581Z,51.93
2017-06-12T00:16:00.028Z,51.64
2017-06-12T00:16:40.487Z,51.74
2017-06-12T00:17:20.946Z,51.64
2017-06-12T00:18:01.407Z,51.93
2017-06-12T00:18:41.864Z,51.54
2017-06-12T00:19:22.316Z,51.54
2017-06-12T00:20:02.771Z,51.84
2017-06-12T00:20:43.234Z,51.84
2017-06-12T00:21:23.688Z,51.93
2017-06-12T00:22:04.139Z,51.25
2017-06-12T00:22:44.594Z,51.16
2017-06-12T00:23:25.046Z,51.84
2017-06-12T00:24:05.497Z,51.84
2017-06-12T00:24:45.952Z,51.93
2017-06-12T00:25:26.410Z,51.74
2017-06-12T00:26:06.854Z,51.84
2017-06-12T00:26:47.317Z,51.84
2017-06-12T00:27:27.769Z,51.16
2017-06-12T00:28:08.225Z,51.64
2017-06-12T00:28:48.680Z,51.74
2017-06-12T00:29:29.141Z,51.74
2017-06-12T00:30:09.602Z,51.84
2017-06-12T00:30:50.071Z,51.84
2017-06-12T00:31:30.532Z,51.93
2017-06-12T00:32:10.988Z,51.93
2017-06-12T00:32:51.452Z,51.74
2017-06-12T00:33:31.912Z,51.74
2017-06-12T00:34:12.370Z,51.74
2017-06-12T00:34:52.825Z,51.84
2017-06-12T00:35:33.282Z,51.84
2017-06-12T00:36:13.733Z,51.93
2017-06-12T00:36:54.185Z,51.84
2017-06-12T00:37:34.649Z,51.54
2017-06-12T00:38:15.098Z,51.84
2017-06-12T00:38:55.555Z,51.93
2017-06-12T00:39:36.003Z,51.74
2017-06-12T00:40:16.461Z,51.84
2017-06-12T00:40:56.940Z,51.84
2017-06-12T00:41:37.396Z,51.84
2017-06-12T00:42:17.858Z,51.54
2017-06-12T00:42:58.314Z,51.84
2017-06-12T00:43:38.782Z,51.93
2017-06-12T00:44:19.247Z,51.74
2017-06-12T00:44:59.682Z,51.54
2017-06-12T00:45:40.139Z,51.84
2017-06-12T00:46:20.594Z,51.64
2017-06-12T00:47:01.054Z,51.35
2017-06-12T00:47:41.518Z,51.54
2017-06-12T00:48:21.975Z,51.64
2017-06-12T00:49:02.443Z,51.64
2017-06-12T00:49:42.895Z,51.54
2017-06-12T00:50:23.357Z,51.74
2017-06-12T00:51:03.853Z,51.54
2017-06-12T00:52:51.529Z,52.12
2017-06-12T00:53:31.992Z,52.12
2017-06-12T00:54:12.441Z,51.84
2017-06-12T00:54:52.895Z,51.93
2017-06-12T00:55:33.356Z,51.93
2017-06-12T00:56:13.808Z,51.84
2017-06-12T00:56:54.262Z,51.93
2017-06-12T00:57:34.717Z,51.93
2017-06-12T00:58:15.176Z,51.74
2017-06-12T00:58:55.630Z,51.93
2017-06-12T00:59:36.095Z,51.93
2017-06-12T01:00:16.556Z,51.93
2017-06-12T01:00:57.016Z,51.93
2017-06-12T01:01:37.473Z,51.84
2017-06-12T01:02:17.930Z,52.03
2017-06-12T01:02:58.384Z,51.84
2017-06-12T01:03:38.839Z,51.93
2017-06-12T01:04:19.297Z,51.74
2017-06-12T01:04:59.767Z,51.64
2017-06-12T01:05:40.224Z,51.74
2017-06-12T01:06:20.682Z,51.74
2017-06-12T01:07:01.134Z,51.64
2017-06-12T01:07:41.589Z,51.64
2017-06-12T01:08:22.049Z,51.64
2017-06-12T01:09:02.512Z,51.74
2017-06-12T01:09:42.965Z,51.74
2017-06-12T01:10:23.425Z,51.64
2017-06-12T01:11:03.890Z,52.12
2017-06-12T01:11:44.337Z,52.12
2017-06-12T01:12:24.800Z,51.84
2017-06-12T01:13:05.258Z,51.93
2017-06-12T01:13:45.736Z,51.93
2017-06-12T01:14:26.194Z,51.74
2017-06-12T01:15:06.652Z,51.93
2017-06-12T01:15:47.108Z,52.03
2017-06-12T01:16:27.564Z,51.93
2017-06-12T01:17:08.018Z,51.93
2017-06-12T01:17:48.475Z,51.93
2017-06-12T01:18:28.941Z,51.93
2017-06-12T01:19:09.402Z,52.03
2017-06-12T01:19:49.858Z,52.03
2017-06-12T01:20:30.313Z,52.03
2017-06-12T01:21:10.777Z,51.93
2017-06-12T01:21:51.232Z,51.93
2017-06-12T01:22:31.684Z,52.32
2017-06-12T01:23:12.146Z,51.93
2017-06-12T01:23:52.608Z,52.42
2017-06-12T01:24:33.075Z,52.51
2017-06-12T01:25:13.537Z,52.42
2017-06-12T01:25:53.995Z,52.32
2017-06-12T01:26:34.460Z,51.93
2017-06-12T01:27:14.923Z,51.93
2017-06-12T01:27:55.373Z,52.12
2017-06-12T01:28:35.837Z,52.03
2017-06-12T01:29:16.298Z,51.84
2017-06-12T01:29:56.754Z,51.84
2017-06-12T01:30:37.215Z,51.84
2017-06-12T01:31:17.676Z,51.93
2017-06-12T01:31:58.132Z,51.74
2017-06-12T01:32:38.593Z,51.74
2017-06-12T01:33:19.051Z,51.74
2017-06-12T01:33:59.510Z,51.64
2017-06-12T01:34:39.995Z,51.93
2017-06-12T01:35:20.430Z,51.74
2017-06-12T01:36:00.887Z,51.62
2017-06-12T01:36:41.353Z,51.62
2017-06-12T01:37:21.811Z,51.72
2017-06-12T01:38:02.269Z,51.52
2017-06-12T01:38:42.729Z,51.62
2017-06-12T01:39:23.198Z,51.52
2017-06-12T01:40:03.655Z,51.62
2017-06-12T01:40:44.119Z,51.72
2017-06-12T01:41:24.575Z,51.62
2017-06-12T01:42:05.035Z,51.62
2017-06-12T01:42:45.494Z,51.72
2017-06-12T01:43:25.952Z,51.62
2017-06-12T01:44:06.409Z,51.72
2017-06-12T01:44:46.872Z,51.52
2017-06-12T01:45:27.334Z,51.52
2017-06-12T01:46:07.797Z,51.62
2017-06-12T01:46:48.272Z,51.52
2017-06-12T01:47:28.726Z,52
2017-06-12T01:48:09.196Z,51.9
2017-06-12T01:48:49.641Z,51.52
2017-06-12T01:49:30.098Z,51.62
2017-06-12T01:50:10.557Z,51.9
2017-06-12T01:50:51.015Z,51.81
2017-06-12T01:51:31.474Z,51.72
2017-06-12T01:52:11.929Z,51.81
2017-06-12T01:52:52.389Z,51.9
2017-06-12T01:53:32.848Z,51.9
2017-06-12T01:54:13.307Z,51.9
2017-06-12T01:54:53.767Z,51.62
2017-06-12T01:55:34.227Z,51.62
2017-06-12T01:56:14.684Z,51.72
2017-06-12T01:56:55.132Z,51.9
2017-06-12T01:57:35.588Z,52
2017-06-12T01:58:16.047Z,51.9
2017-06-12T01:58:56.508Z,51.81
2017-06-12T01:59:36.967Z,51.9
2017-06-12T02:00:17.433Z,51.81
2017-06-12T02:00:57.891Z,52
2017-06-12T02:01:38.352Z,51.9
2017-06-12T02:02:18.809Z,51.9
2017-06-12T02:02:59.267Z,52
2017-06-12T02:03:39.726Z,51.9
2017-06-12T02:04:20.186Z,51.9
2017-06-12T02:05:00.665Z,52
2017-06-12T02:05:41.098Z,51.9
2017-06-12T02:06:21.557Z,51.9
2017-06-12T02:07:02.016Z,51.81
2017-06-12T02:07:42.473Z,51.62
2017-06-12T02:08:22.937Z,51.9
2017-06-12T02:09:03.393Z,51.9
2017-06-12T02:09:43.852Z,51.81
2017-06-12T02:10:24.305Z,51.72
2017-06-12T02:11:04.759Z,51.72
2017-06-12T02:11:45.219Z,51.72
2017-06-12T02:12:25.680Z,51.81
2017-06-12T02:13:06.137Z,51.62
2017-06-12T02:13:46.596Z,51.52
2017-06-12T02:14:27.053Z,51.72
2017-06-12T02:15:07.511Z,51.52
2017-06-12T02:15:47.968Z,51.52
2017-06-12T02:16:28.430Z,52
2017-06-12T02:17:08.872Z,51.72
2017-06-12T02:17:49.331Z,51.81
2017-06-12T02:18:29.784Z,51.81
2017-06-12T02:19:10.245Z,51.72
2017-06-12T02:19:50.706Z,51.62
2017-06-12T02:20:31.160Z,51.81
2017-06-12T02:21:11.614Z,52
2017-06-12T02:21:52.077Z,51.9
2017-06-12T02:22:32.523Z,51.81
2017-06-12T02:23:12.984Z,51.9
2017-06-12T02:23:53.446Z,52
2017-06-12T02:24:33.901Z,51.81
2017-06-12T02:25:14.357Z,51.81
2017-06-12T02:25:54.842Z,51.9
2017-06-12T02:26:35.302Z,51.62
2017-06-12T02:27:15.760Z,51.9
2017-06-12T02:27:56.221Z,51.9
2017-06-12T02:28:36.678Z,51.62
2017-06-12T02:29:17.138Z,51.81
2017-06-12T02:29:57.596Z,51.9
2017-06-12T02:30:38.054Z,51.72
2017-06-12T02:31:18.506Z,51.72
2017-06-12T02:31:58.966Z,51.72
2017-06-12T02:32:39.422Z,51.62
2017-06-12T02:33:19.882Z,51.62
2017-06-12T02:34:00.343Z,51.62
2017-06-12T02:34:40.804Z,51.81
2017-06-12T02:35:21.262Z,51.72
2017-06-12T02:36:01.718Z,51.72
2017-06-12T02:36:42.182Z,51.72
2017-06-12T02:37:22.635Z,51.52
2017-06-12T02:38:03.106Z,51.72
2017-06-12T02:38:43.560Z,51.72
2017-06-12T02:39:24.033Z,51.72
2017-06-12T02:40:04.487Z,51.62
2017-06-12T02:40:44.942Z,51.52
2017-06-12T02:41:25.411Z,51.72
2017-06-12T02:42:05.872Z,51.64
2017-06-12T02:42:46.332Z,51.9
2017-06-12T02:43:26.790Z,51.81
2017-06-12T02:44:07.261Z,52.12
2017-06-12T02:44:47.717Z,51.81
2017-06-12T02:45:28.182Z,52.22
2017-06-12T02:47:15.901Z,51.72
2017-06-12T02:47:56.355Z,51.9
2017-06-12T02:48:36.809Z,51.74
2017-06-12T02:49:17.267Z,51.9
2017-06-12T02:49:57.724Z,52
2017-06-12T02:50:38.184Z,51.9
2017-06-12T02:51:18.651Z,52
2017-06-12T02:51:59.116Z,51.9
2017-06-12T02:52:39.576Z,52.03
2017-06-12T02:53:20.028Z,52.1
2017-06-12T02:54:00.485Z,52.29
2017-06-12T02:54:40.942Z,51.62
2017-06-12T02:55:21.396Z,52.61
2017-06-12T02:56:01.860Z,51.9
2017-06-12T02:56:42.315Z,51.93
2017-06-12T02:57:22.769Z,52.39
2017-06-12T02:58:03.227Z,52.39
2017-06-12T02:58:43.678Z,52.32
2017-06-12T02:59:24.126Z,52.42
2017-06-12T03:00:04.581Z,52.03
2017-06-12T03:00:45.040Z,52.42
2017-06-12T03:01:25.499Z,52.42
2017-06-12T03:02:05.957Z,51.93
2017-06-12T03:02:46.415Z,51.64
2017-06-12T03:03:26.876Z,51.93
2017-06-12T03:04:07.331Z,52.12
2017-06-12T03:04:47.791Z,52.22
2017-06-12T03:05:28.250Z,52.03
2017-06-12T03:06:08.710Z,51.93
2017-06-12T03:06:49.169Z,51.84
2017-06-12T03:07:29.628Z,51.93
2017-06-12T03:08:10.087Z,51.9
2017-06-12T03:08:50.545Z,52.39
2017-06-12T03:09:31.001Z,52.39
2017-06-12T03:10:11.457Z,52.58
2017-06-12T03:10:51.920Z,52.32
2017-06-12T03:11:32.378Z,52.29
2017-06-12T03:12:12.835Z,52.2
2017-06-12T03:12:53.294Z,52.2
2017-06-12T03:13:33.753Z,52.42
2017-06-12T03:14:14.213Z,52.29
2017-06-12T03:14:54.669Z,52.39
2017-06-12T03:15:35.124Z,52.39
2017-06-12T03:16:15.581Z,52.29
2017-06-12T03:16:56.061Z,52.39
2017-06-12T03:17:36.496Z,52.39
2017-06-12T03:18:16.953Z,52.39
2017-06-12T03:18:57.415Z,52.29
2017-06-12T03:19:37.873Z,52.29
2017-06-12T03:20:18.330Z,52.49
2017-06-12T03:20:58.797Z,52.49
2017-06-12T03:21:39.255Z,52.78
2017-06-12T03:22:19.723Z,52.58
2017-06-12T03:23:00.177Z,52.39
2017-06-12T03:23:40.636Z,52.29
2017-06-12T03:24:21.094Z,52.39
2017-06-12T03:25:01.557Z,52.39
2017-06-12T03:25:42.014Z,52.78
2017-06-12T03:26:22.469Z,52.2
2017-06-12T03:27:02.933Z,52.68
2017-06-12T03:27:43.380Z,52.29
2017-06-12T03:28:23.839Z,52.29
2017-06-12T03:29:04.293Z,52.49
2017-06-12T03:29:44.749Z,52.49
2017-06-12T03:30:25.205Z,52.49
2017-06-12T03:31:05.669Z,52.39
2017-06-12T03:31:46.127Z,52.68
2017-06-12T03:32:26.583Z,52.68
2017-06-12T03:33:07.039Z,52.78
2017-06-12T03:33:47.506Z,52.68
2017-06-12T03:34:27.950Z,52.49
2017-06-12T03:35:08.408Z,52.68
2017-06-12T03:35:48.866Z,52.68
2017-06-12T03:36:29.381Z,52.49
2017-06-12T03:37:09.839Z,52.29
2017-06-12T03:37:50.303Z,52.68
2017-06-12T03:38:30.754Z,52.49
2017-06-12T03:39:11.210Z,52.87
2017-06-12T03:39:51.670Z,53
2017-06-12T03:40:32.127Z,53
2017-06-12T03:41:12.597Z,53
2017-06-12T03:41:53.053Z,52.9
2017-06-12T03:42:33.509Z,52.8
2017-06-12T03:43:13.972Z,52.9
2017-06-12T03:43:54.427Z,52.9
2017-06-12T03:44:34.886Z,52.9
2017-06-12T03:45:15.344Z,52.8
2017-06-12T03:45:55.801Z,52.9
2017-06-12T03:46:36.262Z,52.9
2017-06-12T03:47:16.720Z,53
2017-06-12T03:47:57.178Z,53.09
2017-06-12T03:48:37.637Z,52.71
2017-06-12T03:49:18.092Z,52.9
2017-06-12T03:49:58.553Z,52.9
2017-06-12T03:50:39.013Z,52.9
2017-06-12T03:51:19.468Z,53.09
2017-06-12T03:51:59.929Z,53.49
2017-06-12T03:52:40.386Z,53.39
2017-06-12T03:53:20.845Z,53.29
2017-06-12T03:54:01.301Z,53.02
2017-06-12T03:54:41.761Z,53.09
2017-06-12T03:55:22.212Z,53.12
2017-06-12T03:56:02.672Z,53.19
2017-06-12T03:56:43.131Z,53.39
2017-06-12T03:57:23.591Z,53.39
2017-06-12T03:58:04.090Z,53.49
2017-06-12T03:58:44.555Z,53.87
2017-06-12T03:59:25.035Z,53.87
2017-06-12T04:00:05.490Z,53.97
2017-06-12T04:00:45.949Z,53.67
2017-06-12T04:01:26.414Z,53.77
2017-06-12T04:02:06.867Z,53.77
2017-06-12T04:02:47.323Z,53.77
2017-06-12T04:03:27.786Z,53.77
2017-06-12T04:04:08.238Z,53.67
2017-06-12T04:04:48.695Z,53.97
2017-06-12T04:05:29.149Z,53.97
2017-06-12T04:06:09.607Z,53.77
2017-06-12T04:06:50.065Z,53.77
2017-06-12T04:07:30.913Z,53.87
2017-06-12T04:09:18.494Z,53.49
2017-06-12T04:09:58.935Z,53.58
2017-06-12T04:10:39.393Z,53.49
2017-06-12T04:11:19.848Z,53.49
2017-06-12T04:12:00.311Z,53.49
2017-06-12T04:12:40.754Z,53.49
2017-06-12T04:13:21.211Z,53.49
2017-06-12T04:14:01.660Z,53.49
2017-06-12T04:14:42.101Z,53.58
2017-06-12T04:15:22.565Z,53.49
2017-06-12T04:16:03.100Z,53.49
2017-06-12T04:16:43.473Z,53.58
2017-06-12T04:17:23.925Z,53.49
2017-06-12T04:18:04.379Z,53.49
2017-06-12T04:18:44.842Z,53.49
2017-06-12T04:19:25.291Z,53.58
2017-06-12T04:20:05.741Z,53.39
2017-06-12T04:20:46.200Z,53.49
2017-06-12T04:21:26.659Z,53.49
2017-06-12T04:22:07.103Z,53.58
2017-06-12T04:22:47.555Z,53.58
2017-06-12T04:23:28.009Z,53.49
2017-06-12T04:24:08.463Z,53.58
2017-06-12T04:24:48.923Z,53.49
2017-06-12T04:25:29.429Z,53.49
2017-06-12T04:26:09.878Z,53.49
2017-06-12T04:26:50.339Z,53.58
2017-06-12T04:27:30.796Z,53.58
2017-06-12T04:28:11.256Z,53.49
2017-06-12T04:28:51.713Z,53.58
2017-06-12T04:29:32.186Z,53.58
2017-06-12T04:30:12.630Z,53.58
2017-06-12T04:30:53.084Z,53.49
2017-06-12T04:31:33.546Z,53.29
2017-06-12T04:32:14.007Z,53.49
2017-06-12T04:32:54.464Z,53.58
2017-06-12T04:33:34.928Z,53.39
2017-06-12T04:34:15.385Z,53.58
2017-06-12T04:34:55.841Z,53.29
2017-06-12T04:35:36.301Z,53.29
2017-06-12T04:36:16.755Z,53.29
2017-06-12T04:36:57.207Z,53.39
2017-06-12T04:37:37.696Z,53.39
2017-06-12T04:38:18.158Z,53.49
2017-06-12T04:38:58.619Z,53.49
2017-06-12T04:39:39.144Z,53.49
2017-06-12T04:40:19.604Z,53.49
2017-06-12T04:41:00.068Z,53.09
2017-06-12T04:41:40.520Z,53.09
2017-06-12T04:42:20.975Z,53.19
2017-06-12T04:43:01.433Z,53.09
2017-06-12T04:43:41.886Z,53.09
2017-06-12T04:44:22.342Z,53.29
2017-06-12T04:45:02.798Z,53.09
2017-06-12T04:45:43.258Z,53.09
2017-06-12T04:46:23.717Z,53.09
2017-06-12T04:47:04.195Z,53.19
2017-06-12T04:47:44.628Z,53.09
2017-06-12T04:48:25.085Z,53.19
2017-06-12T04:49:05.543Z,52.9
2017-06-12T04:49:46.001Z,53.19
2017-06-12T04:50:26.460Z,53.09
2017-06-12T04:51:06.911Z,52.9
2017-06-12T04:51:47.362Z,53.09
2017-06-12T04:52:27.816Z,53.09
2017-06-12T04:53:08.389Z,53.09
2017-06-12T04:53:48.742Z,53.09
2017-06-12T04:54:29.224Z,53.09
2017-06-12T04:55:09.689Z,53.09
2017-06-12T04:55:50.147Z,53.09
2017-06-12T04:56:30.641Z,53.29
2017-06-12T04:57:11.107Z,53
2017-06-12T04:59:24.143Z,53.29
2017-06-12T05:00:04.602Z,53.39
2017-06-12T05:00:45.060Z,53.39
2017-06-12T05:01:25.516Z,53.29
2017-06-12T05:02:05.979Z,53.22
2017-06-12T05:02:46.436Z,53.19
2017-06-12T05:03:26.895Z,53.31
2017-06-12T05:04:07.352Z,53.19
2017-06-12T05:04:47.811Z,53.22
2017-06-12T05:05:28.271Z,53.09
2017-06-12T05:06:08.730Z,53.51
2017-06-12T05:06:49.186Z,53.41
2017-06-12T05:07:29.640Z,53.61
2017-06-12T05:08:10.097Z,53.41
2017-06-12T05:08:50.547Z,53.39
2017-06-12T05:09:31.007Z,53.39
2017-06-12T05:10:11.462Z,53.12
2017-06-12T05:10:51.906Z,53.12
2017-06-12T05:11:32.364Z,52.93
2017-06-12T05:12:12.819Z,52.64
2017-06-12T05:12:53.274Z,52.83
2017-06-12T05:13:33.732Z,52.83
2017-06-12T05:14:14.181Z,52.83
2017-06-12T05:14:55.116Z,53.12
2017-06-12T05:15:35.569Z,52.83
2017-06-12T05:16:16.027Z,52.93
2017-06-12T05:16:56.486Z,53.02
2017-06-12T05:17:36.945Z,53.12
2017-06-12T05:18:17.405Z,53.12
2017-06-12T05:18:57.861Z,52.93
2017-06-12T05:19:38.315Z,52.93
2017-06-12T05:20:18.772Z,52.83
2017-06-12T05:20:59.229Z,52.93
2017-06-12T05:21:39.695Z,52.93
2017-06-12T05:22:20.155Z,52.83
2017-06-12T05:23:00.612Z,52.83
2017-06-12T05:23:41.073Z,52.93
2017-06-12T05:24:21.529Z,52.93
2017-06-12T05:25:01.994Z,52.9
2017-06-12T05:25:42.450Z,53.12
2017-06-12T05:26:22.905Z,53.02
2017-06-12T05:27:03.370Z,52.93
2017-06-12T05:27:43.826Z,52.83
2017-06-12T05:28:24.317Z,52.73
2017-06-12T05:29:04.779Z,52.64
2017-06-12T05:29:45.233Z,52.64
2017-06-12T05:30:25.696Z,52.44
2017-06-12T05:31:06.148Z,52.34
2017-06-12T05:31:46.607Z,52.54
2017-06-12T05:32:27.055Z,52.44
2017-06-12T05:33:07.525Z,52.54
2017-06-12T05:33:47.982Z,52.44
2017-06-12T05:34:28.443Z,52.73
2017-06-12T05:35:08.895Z,52.93
2017-06-12T05:35:49.353Z,52.64
2017-06-12T05:36:29.806Z,52.54
2017-06-12T05:37:10.264Z,52.54
2017-06-12T05:37:50.724Z,52.73
2017-06-12T05:38:31.174Z,52.34
2017-06-12T05:39:11.629Z,52.44
2017-06-12T05:39:52.087Z,52.44
2017-06-12T05:40:32.542Z,52.54
2017-06-12T05:41:12.994Z,52.44
2017-06-12T05:41:53.441Z,52.44
2017-06-12T05:42:33.905Z,52.25
2017-06-12T05:43:14.351Z,52.64
2017-06-12T05:43:54.809Z,52.64
2017-06-12T05:44:35.267Z,52.54
2017-06-12T05:45:15.725Z,52.54
2017-06-12T05:45:56.183Z,52.83
2017-06-12T05:46:36.641Z,52.64
2017-06-12T05:47:17.101Z,52.73
2017-06-12T05:47:57.558Z,52.73
2017-06-12T05:48:38.014Z,52.64
2017-06-12T05:49:18.472Z,52.54
2017-06-12T05:49:58.918Z,52.54
2017-06-12T05:50:39.369Z,52.64
2017-06-12T05:51:19.826Z,52.64
2017-06-12T05:52:00.289Z,52.73
2017-06-12T05:52:40.747Z,52.64
2017-06-12T05:53:21.203Z,52.73
2017-06-12T05:54:01.663Z,52.64
2017-06-12T05:54:42.122Z,52.44
2017-06-12T05:55:22.577Z,52.44
2017-06-12T05:56:03.035Z,52.73
2017-06-12T05:56:43.495Z,52.66
2017-06-12T05:57:23.953Z,52.83
2017-06-12T05:58:04.407Z,52.64
2017-06-12T05:58:44.857Z,52.44
2017-06-12T05:59:25.318Z,52.44
2017-06-12T06:00:05.776Z,52.44
2017-06-12T06:00:46.237Z,52.54
2017-06-12T06:01:26.696Z,52.44
2017-06-12T06:02:07.162Z,52.34
2017-06-12T06:02:47.618Z,52.34
2017-06-12T06:03:28.076Z,52.34
2017-06-12T06:04:08.534Z,52.54
2017-06-12T06:04:48.992Z,52.25
2017-06-12T06:05:29.456Z,52.44
2017-06-12T06:06:09.916Z,52.25
2017-06-12T06:06:50.377Z,52.34
2017-06-12T06:07:30.836Z,52.34
2017-06-12T06:08:11.296Z,52.34
2017-06-12T06:08:51.753Z,52.34
2017-06-12T06:09:32.216Z,52.44
2017-06-12T06:10:12.667Z,52.34
2017-06-12T06:10:53.124Z,52.47
2017-06-12T06:11:33.581Z,52.25
2017-06-12T06:12:14.040Z,52.44
2017-06-12T06:12:54.493Z,52.54
2017-06-12T06:13:34.974Z,52.44
2017-06-12T06:14:15.433Z,52.56
2017-06-12T06:14:55.888Z,52.66
2017-06-12T06:15:36.336Z,52.56
2017-06-12T06:16:16.795Z,51.98
2017-06-12T06:16:57.247Z,51.98
2017-06-12T06:17:37.708Z,52.18
2017-06-12T06:18:18.165Z,51.98
2017-06-12T06:18:58.621Z,52.08
2017-06-12T06:19:39.079Z,51.89
2017-06-12T06:20:19.536Z,51.69
2017-06-12T06:20:59.996Z,51.98
2017-06-12T06:21:40.455Z,51.59
2017-06-12T06:22:20.916Z,51.89
2017-06-12T06:23:01.369Z,51.69
2017-06-12T06:23:41.829Z,51.69
2017-06-12T06:24:22.292Z,51.79
2017-06-12T06:25:02.745Z,51.79
2017-06-12T06:25:43.202Z,51.69
2017-06-12T06:26:23.659Z,51.69
2017-06-12T06:27:04.155Z,51.98
2017-06-12T06:27:44.587Z,51.89
2017-06-12T06:28:25.045Z,51.98
2017-06-12T06:29:05.503Z,51.89
2017-06-12T06:29:45.960Z,51.98
2017-06-12T06:30:26.419Z,51.89
2017-06-12T06:31:06.874Z,51.98
2017-06-12T06:31:47.333Z,51.89
2017-06-12T06:32:27.792Z,51.98
2017-06-12T06:33:08.253Z,51.98
2017-06-12T06:33:48.709Z,51.98
2017-06-12T06:34:29.169Z,51.98
2017-06-12T06:35:09.636Z,51.89
2017-06-12T06:35:50.091Z,51.69
2017-06-12T06:36:30.546Z,51.98
2017-06-12T06:37:10.995Z,51.89
2017-06-12T06:37:51.454Z,52.08
2017-06-12T06:38:31.912Z,51.59
2017-06-12T06:39:12.367Z,51.89
2017-06-12T06:39:52.819Z,51.79
2017-06-12T06:40:33.269Z,51.79
2017-06-12T06:41:13.729Z,51.69
2017-06-12T06:41:54.209Z,51.69
2017-06-12T06:42:34.710Z,52.18
2017-06-12T06:43:15.169Z,52.18
2017-06-12T06:43:55.662Z,51.98
2017-06-12T06:44:36.123Z,51.79
2017-06-12T06:45:16.579Z,51.98
2017-06-12T06:45:57.038Z,51.79
2017-06-12T06:46:37.495Z,51.79
2017-06-12T06:47:17.951Z,51.89
2017-06-12T06:47:58.412Z,51.98
2017-06-12T06:48:38.863Z,51.98
2017-06-12T06:49:19.318Z,51.89
2017-06-12T06:49:59.785Z,51.89
2017-06-12T06:50:40.240Z,51.98
2017-06-12T06:51:20.702Z,51.89
2017-06-12T06:52:01.159Z,51.96
2017-06-12T06:52:41.616Z,51.98
2017-06-12T06:53:22.074Z,51.98
2017-06-12T06:54:02.531Z,51.96
2017-06-12T06:54:42.989Z,51.98
2017-06-12T06:55:23.448Z,52.06
2017-06-12T06:56:03.910Z,51.96
2017-06-12T06:56:44.371Z,51.96
2017-06-12T06:57:24.827Z,51.76
2017-06-12T06:58:05.284Z,51.86
2017-06-12T06:58:45.740Z,51.96
2017-06-12T06:59:26.201Z,52.18
2017-06-12T07:00:06.652Z,51.69
2017-06-12T07:00:47.108Z,52.15
2017-06-12T07:01:27.565Z,51.86
2017-06-12T07:02:08.016Z,51.69
2017-06-12T07:02:48.473Z,51.69
2017-06-12T07:03:28.934Z,51.59
2017-06-12T07:04:09.431Z,51.79
2017-06-12T07:04:49.883Z,51.79
2017-06-12T07:05:30.333Z,51.59
2017-06-12T07:06:10.790Z,51.79
2017-06-12T07:06:51.245Z,51.69
2017-06-12T07:07:31.706Z,51.76
2017-06-12T07:08:12.163Z,51.76
2017-06-12T07:08:52.624Z,51.57
2017-06-12T07:09:33.084Z,51.98
2017-06-12T07:10:13.543Z,51.69
2017-06-12T07:10:54.003Z,51.67
2017-06-12T07:11:34.466Z,51.86
2017-06-12T07:12:14.920Z,51.67
2017-06-12T07:12:55.372Z,51.96
2017-06-12T07:13:35.831Z,52.15
2017-06-12T07:14:16.298Z,51.86
2017-06-12T07:14:56.756Z,51.86
2017-06-12T07:15:37.210Z,52.25
2017-06-12T07:16:17.674Z,51.57
2017-06-12T07:16:58.129Z,52.15
2017-06-12T07:17:38.587Z,51.76
2017-06-12T07:18:19.044Z,51.96
2017-06-12T07:18:59.505Z,51.67
2017-06-12T07:19:39.963Z,52.15
2017-06-12T07:20:20.421Z,51.86
2017-06-12T07:21:00.876Z,52.15
2017-06-12T07:21:41.332Z,51.96
2017-06-12T07:22:21.792Z,51.76
2017-06-12T07:23:02.244Z,51.76
2017-06-12T07:23:42.695Z,51.76
2017-06-12T07:24:23.154Z,51.96
2017-06-12T07:25:03.610Z,51.96
2017-06-12T07:25:44.068Z,51.86
2017-06-12T07:26:24.539Z,51.86
2017-06-12T07:27:04.996Z,51.96
2017-06-12T07:27:45.446Z,51.76
2017-06-12T07:28:25.902Z,51.96
2017-06-12T07:29:06.366Z,51.96
2017-06-12T07:29:46.827Z,51.96
2017-06-12T07:30:27.285Z,51.96
2017-06-12T07:31:07.741Z,51.96
2017-06-12T07:31:48.201Z,51.96
2017-06-12T07:32:28.659Z,51.86
2017-06-12T07:33:09.120Z,51.96
2017-06-12T07:33:49.579Z,51.96
2017-06-12T07:34:30.036Z,51.96
2017-06-12T07:35:10.500Z,51.96
2017-06-12T07:35:50.952Z,51.96
2017-06-12T07:36:31.415Z,51.96
2017-06-12T07:37:11.876Z,51.96
2017-06-12T07:37:52.336Z,52.25
2017-06-12T07:38:32.811Z,52.06
2017-06-12T07:39:13.269Z,51.96
2017-06-12T07:39:53.724Z,51.96
2017-06-12T07:40:34.184Z,51.96
2017-06-12T07:41:14.644Z,51.76
2017-06-12T07:41:55.116Z,51.96
2017-06-12T07:42:35.574Z,51.86
2017-06-12T07:43:16.028Z,51.98
2017-06-12T07:43:56.482Z,51.96
2017-06-12T07:44:36.943Z,51.96
2017-06-12T07:45:17.402Z,52.25
2017-06-12T07:45:57.845Z,51.67
2017-06-12T07:46:38.301Z,51.76
2017-06-12T07:47:18.758Z,51.67
2017-06-12T07:47:59.217Z,51.67
2017-06-12T07:48:39.673Z,51.57
2017-06-12T07:49:20.132Z,51.57
2017-06-12T07:50:00.592Z,51.96
2017-06-12T07:50:41.043Z,51.86
2017-06-12T07:51:21.502Z,51.76
2017-06-12T07:52:01.961Z,51.89
2017-06-12T07:52:42.417Z,52.08
2017-06-12T07:53:22.878Z,51.86
2017-06-12T07:54:03.339Z,51.89
2017-06-12T07:54:43.789Z,51.98
2017-06-12T07:55:24.248Z,51.89
2017-06-12T07:56:04.701Z,51.89
2017-06-12T07:56:45.161Z,52.15
2017-06-12T07:57:25.616Z,51.98
2017-06-12T07:58:06.077Z,52.08
2017-06-12T07:58:46.538Z,51.89
2017-06-12T07:59:27.014Z,51.89
2017-06-12T08:00:07.472Z,51.69
2017-06-12T08:00:47.937Z,51.59
2017-06-12T08:01:28.395Z,51.69
2017-06-12T08:02:08.859Z,51.59
2017-06-12T08:02:49.316Z,51.59
2017-06-12T08:03:29.774Z,51.59
2017-06-12T08:04:10.258Z,51.59
2017-06-12T08:04:50.725Z,51.89
2017-06-12T08:05:31.187Z,51.89
2017-06-12T08:06:11.644Z,51.89
2017-06-12T08:06:52.108Z,51.89
2017-06-12T08:07:32.565Z,51.21
2017-06-12T08:08:13.023Z,51.69
2017-06-12T08:08:53.474Z,51.4
2017-06-12T08:09:33.943Z,51.4
2017-06-12T08:10:14.391Z,51.4
2017-06-12T08:10:54.846Z,51.5
2017-06-12T08:11:35.295Z,51.59
2017-06-12T08:12:15.754Z,51.4
2017-06-12T08:12:56.213Z,51.31
2017-06-12T08:13:36.673Z,51.59
2017-06-12T08:14:17.132Z,51.69
2017-06-12T08:14:57.595Z,51.4
2017-06-12T08:15:38.057Z,51.69
2017-06-12T08:16:18.519Z,51.79
2017-06-12T08:16:58.977Z,51.59
2017-06-12T08:17:39.433Z,51.89
2017-06-12T08:18:19.894Z,51.98
2017-06-12T08:19:00.355Z,51.31
2017-06-12T08:19:40.815Z,51.89
2017-06-12T08:20:21.274Z,51.21
2017-06-12T08:21:01.732Z,51.4
2017-06-12T08:21:42.192Z,51.11
2017-06-12T08:22:22.651Z,51.21
2017-06-12T08:23:03.113Z,51.21
2017-06-12T08:23:43.574Z,51.11
2017-06-12T08:24:24.035Z,51.11
2017-06-12T08:25:04.503Z,51.21
2017-06-12T08:25:44.962Z,51.01
2017-06-12T08:26:25.421Z,51.31
2017-06-12T08:27:05.879Z,50.92
2017-06-12T08:27:46.334Z,50.92
2017-06-12T08:28:26.801Z,50.92
2017-06-12T08:29:07.261Z,51.01
2017-06-12T08:29:47.721Z,50.84
2017-06-12T08:30:28.180Z,51.01
2017-06-12T08:31:08.646Z,51.14
2017-06-12T08:31:49.123Z,51.23
2017-06-12T08:33:46.920Z,50.74
2017-06-12T08:34:27.368Z,50.74
2017-06-12T08:35:07.823Z,50.74
2017-06-12T08:35:48.281Z,50.56
2017-06-12T08:36:28.745Z,50.84
2017-06-12T08:37:09.195Z,50.65
2017-06-12T08:37:49.650Z,50.56
2017-06-12T08:38:30.100Z,50.74
2017-06-12T08:39:10.564Z,50.65
2017-06-12T08:39:51.025Z,50.74
2017-06-12T08:40:31.481Z,50.65
2017-06-12T08:41:11.940Z,50.36
2017-06-12T08:41:52.398Z,50.74
2017-06-12T08:42:32.854Z,50.65
2017-06-12T08:43:13.312Z,50.36
2017-06-12T08:43:53.764Z,50.65
2017-06-12T08:44:34.219Z,50.65
2017-06-12T08:45:14.674Z,50.65
2017-06-12T08:45:55.115Z,50.56
2017-06-12T08:46:35.586Z,50.56
2017-06-12T08:47:16.041Z,50.74
2017-06-12T08:47:56.501Z,51.04
2017-06-12T08:48:36.960Z,50.46
2017-06-12T08:49:17.418Z,50.07
2017-06-12T08:49:57.878Z,50.26